createdAt,value
2023-03-26T00:01:46.899Z,1.60
2023-03-26T00:04:19.712Z,1.40
2023-03-26T00:06:48.837Z,1.60
2023-03-26T00:09:18.910Z,1.63
2023-03-26T00:11:47.532Z,1.63
2023-03-26T00:14:17.875Z,1.50
2023-03-26T00:16:49.425Z,1.33
2023-03-26T00:19:17.877Z,1.93
2023-03-26T00:21:48.373Z,1.70
2023-03-26T00:24:17.516Z,1.70
2023-03-26T00:26:53.331Z,1.90
2023-03-26T00:29:23.129Z,1.73
2023-03-26T00:31:53.388Z,1.63
2023-03-26T00:34:23.109Z,1.50
2023-03-26T00:36:54.383Z,2.00
2023-03-26T00:39:24.109Z,2.00
2023-03-26T00:41:54.294Z,1.50
2023-03-26T00:44:23.294Z,1.70
2023-03-26T00:46:53.463Z,1.50
2023-03-26T00:49:21.867Z,1.53
2023-03-26T00:51:50.467Z,1.70
2023-03-26T00:54:18.890Z,1.97
2023-03-26T00:56:47.419Z,1.77
2023-03-26T00:59:17.063Z,2.40
2023-03-26T01:01:45.573Z,2.00
2023-03-26T01:04:30.602Z,1.90
2023-03-26T01:07:02.804Z,1.40
2023-03-26T01:09:36.482Z,1.60
2023-03-26T01:12:08.609Z,2.20
2023-03-26T01:14:39.524Z,1.50
2023-03-26T01:17:09.409Z,1.80
2023-03-26T01:19:49.921Z,1.80
2023-03-26T01:22:23.739Z,1.67
2023-03-26T01:24:56.462Z,1.50
2023-03-26T01:27:39.035Z,2.57
2023-03-26T01:30:18.718Z,1.60
2023-03-26T01:32:57.849Z,1.53
2023-03-26T01:35:37.957Z,1.50
2023-03-26T01:38:24.470Z,2.17
2023-03-26T01:41:20.579Z,1.97
2023-03-26T01:43:55.548Z,1.53
2023-03-26T01:46:26.415Z,1.63
2023-03-26T01:48:55.529Z,2.80
2023-03-26T01:51:30.023Z,1.80
2023-03-26T01:53:59.397Z,1.50
2023-03-26T01:56:39.047Z,1.67
2023-03-26T01:59:37.951Z,1.47
2023-03-26T02:02:13.266Z,2.20
2023-03-26T02:04:53.002Z,2.30
2023-03-26T02:07:28.807Z,2.03
2023-03-26T02:10:05.580Z,1.40
2023-03-26T02:12:36.851Z,2.30
2023-03-26T02:15:06.651Z,1.77
2023-03-26T02:17:36.178Z,1.60
2023-03-26T02:20:06.303Z,1.87
2023-03-26T02:22:40.740Z,1.87
2023-03-26T02:25:13.136Z,2.73
2023-03-26T02:27:43.824Z,2.57
2023-03-26T02:30:18.290Z,2.13
2023-03-26T02:32:52.334Z,1.73
2023-03-26T02:35:23.179Z,1.53
2023-03-26T02:37:57.110Z,1.70
2023-03-26T02:40:25.433Z,1.90
2023-03-26T02:42:55.425Z,1.80
2023-03-26T02:45:24.853Z,2.53
2023-03-26T02:48:20.311Z,1.77
2023-03-26T02:50:54.341Z,1.43
2023-03-26T02:54:01.698Z,1.53
2023-03-26T02:57:02.755Z,2.30
2023-03-26T02:59:46.427Z,2.10
2023-03-26T03:02:33.377Z,1.87
2023-03-26T03:05:18.458Z,2.77
2023-03-26T03:07:48.140Z,2.30
2023-03-26T03:10:16.556Z,1.67
2023-03-26T03:13:05.880Z,1.93
2023-03-26T03:15:35.887Z,2.50
2023-03-26T03:18:04.350Z,2.10
2023-03-26T03:20:35.271Z,1.60
2023-03-26T03:23:03.851Z,1.80
2023-03-26T03:25:33.833Z,2.47
2023-03-26T03:28:02.366Z,2.10
2023-03-26T03:30:31.062Z,2.10
2023-03-26T03:33:03.454Z,1.97
2023-03-26T03:35:32.241Z,2.70
2023-03-26T03:38:01.492Z,2.23
2023-03-26T03:40:34.217Z,3.57
2023-03-26T03:43:02.634Z,1.97
2023-03-26T03:45:40.742Z,2.37
2023-03-26T03:48:18.418Z,1.70
2023-03-26T03:50:48.602Z,2.40
2023-03-26T03:53:27.034Z,2.80
2023-03-26T03:55:58.379Z,3.20
2023-03-26T03:58:49.609Z,2.23
2023-03-26T04:01:26.105Z,1.57
2023-03-26T04:04:01.787Z,2.13
2023-03-26T04:06:44.894Z,1.87
2023-03-26T04:09:15.443Z,2.50
2023-03-26T04:11:45.451Z,2.50
2023-03-26T04:14:24.393Z,2.10
2023-03-26T04:17:02.244Z,1.70
2023-03-26T04:19:34.386Z,2.37
2023-03-26T04:22:03.364Z,2.00
2023-03-26T04:24:38.376Z,2.37
2023-03-26T04:27:36.920Z,1.70
2023-03-26T04:30:20.681Z,1.60
2023-03-26T04:32:58.587Z,2.17
2023-03-26T04:35:34.372Z,2.43
2023-03-26T04:38:06.590Z,2.33
2023-03-26T04:40:39.381Z,2.20
2023-03-26T04:43:24.675Z,2.27
2023-03-26T04:45:54.092Z,3.20
2023-03-26T04:48:25.907Z,2.70
2023-03-26T04:50:55.737Z,2.50
2023-03-26T04:53:25.115Z,3.20
2023-03-26T04:56:21.580Z,2.33
2023-03-26T04:59:08.118Z,2.40
2023-03-26T05:01:41.828Z,3.10
2023-03-26T05:04:13.365Z,2.37
2023-03-26T05:06:43.773Z,2.40
2023-03-26T05:09:32.764Z,1.97
2023-03-26T05:12:24.345Z,2.57
2023-03-26T05:15:03.968Z,2.17
2023-03-26T05:18:01.596Z,2.63
2023-03-26T05:20:36.008Z,1.97
2023-03-26T05:23:08.473Z,2.80
2023-03-26T05:25:39.502Z,2.37
2023-03-26T05:28:15.514Z,2.83
2023-03-26T05:30:53.927Z,2.57
2023-03-26T05:33:24.572Z,3.10
2023-03-26T05:36:10.469Z,2.50
2023-03-26T05:38:40.936Z,3.47
2023-03-26T05:41:12.268Z,2.50
2023-03-26T05:43:44.822Z,3.50
2023-03-26T05:46:17.314Z,3.63
2023-03-26T05:48:45.842Z,2.27
2023-03-26T05:51:15.629Z,2.30
2023-03-26T05:53:52.882Z,2.30
2023-03-26T05:56:47.599Z,2.67
2023-03-26T05:59:34.485Z,2.00
2023-03-26T06:02:38.010Z,1.70
2023-03-26T06:05:35.352Z,2.67
2023-03-26T06:08:14.291Z,3.10
2023-03-26T06:10:51.753Z,2.40
2023-03-26T06:13:20.112Z,2.23
2023-03-26T06:15:50.548Z,2.80
2023-03-26T06:18:29.269Z,2.33
2023-03-26T06:21:24.920Z,2.07
2023-03-26T06:23:57.620Z,2.93
2023-03-26T06:26:42.028Z,2.70
2023-03-26T06:29:19.728Z,2.37
2023-03-26T06:32:19.561Z,1.93
2023-03-26T06:35:09.838Z,2.80
2023-03-26T06:37:38.608Z,3.03
2023-03-26T06:40:09.992Z,2.23
2023-03-26T06:43:08.268Z,2.80
2023-03-26T06:45:57.616Z,2.87
2023-03-26T06:49:04.546Z,2.20
2023-03-26T06:51:54.954Z,2.70
2023-03-26T06:54:42.001Z,3.20
2023-03-26T06:57:29.031Z,2.23
2023-03-26T07:00:30.993Z,2.33
2023-03-26T07:03:18.210Z,2.77
2023-03-26T07:06:05.254Z,2.57
2023-03-26T07:08:52.468Z,3.10
2023-03-26T07:11:29.831Z,2.37
2023-03-26T07:14:33.357Z,2.63
2023-03-26T07:17:21.656Z,2.90
2023-03-26T07:19:55.361Z,2.50
2023-03-26T07:22:28.189Z,4.10
2023-03-26T07:25:10.628Z,2.23
2023-03-26T07:28:26.768Z,3.20
2023-03-26T07:31:23.216Z,2.33
2023-03-26T07:34:09.308Z,3.30
2023-03-26T07:36:50.058Z,2.73
2023-03-26T07:39:52.606Z,2.77
2023-03-26T07:42:59.384Z,2.30
2023-03-26T07:45:47.373Z,2.50
2023-03-26T07:48:42.830Z,2.20
2023-03-26T07:51:32.217Z,3.40
2023-03-26T07:54:12.997Z,2.73
2023-03-26T07:57:04.420Z,2.90
2023-03-26T07:59:41.600Z,2.80
2023-03-26T08:03:10.894Z,2.87
2023-03-26T08:06:07.974Z,2.80
2023-03-26T08:08:49.865Z,2.80
2023-03-26T08:11:49.824Z,3.47
2023-03-26T08:14:37.859Z,2.60
2023-03-26T08:17:13.223Z,3.03
2023-03-26T08:20:05.851Z,1.90
2023-03-26T08:22:38.339Z,3.90
2023-03-26T08:25:28.022Z,2.73
2023-03-26T08:28:10.832Z,2.87
2023-03-26T08:30:39.540Z,2.50
2023-03-26T08:33:16.784Z,2.97
2023-03-26T08:35:46.250Z,4.00
2023-03-26T08:38:18.149Z,4.10
2023-03-26T08:41:33.029Z,3.27
2023-03-26T08:44:41.536Z,2.93
2023-03-26T08:48:11.798Z,2.80
2023-03-26T08:51:33.762Z,2.83
2023-03-26T08:54:56.781Z,2.70
2023-03-26T08:58:04.473Z,2.60
2023-03-26T09:01:12.739Z,3.40
2023-03-26T09:04:03.317Z,3.27
2023-03-26T09:06:59.212Z,3.23
2023-03-26T09:10:30.691Z,2.53
2023-03-26T09:13:38.159Z,3.30
2023-03-26T09:16:57.201Z,2.57
2023-03-26T09:20:30.790Z,3.27
2023-03-26T09:23:41.617Z,2.27
2023-03-26T09:26:25.811Z,3.43
2023-03-26T09:30:06.786Z,3.00
2023-03-26T09:33:34.838Z,3.50
2023-03-26T09:36:31.370Z,3.50
2023-03-26T09:39:10.929Z,3.20
2023-03-26T09:41:44.982Z,2.57
2023-03-26T09:44:56.445Z,2.57
2023-03-26T09:48:18.953Z,3.17
2023-03-26T09:51:03.777Z,2.80
2023-03-26T09:54:04.191Z,2.00
2023-03-26T09:56:49.750Z,2.33
2023-03-26T09:59:52.715Z,2.30
2023-03-26T10:02:46.672Z,2.70
2023-03-26T10:05:34.390Z,7.40
2023-03-26T10:08:32.339Z,3.37
2023-03-26T10:11:12.201Z,3.83
2023-03-26T10:13:55.417Z,3.27
2023-03-26T10:16:36.255Z,2.63
2023-03-26T10:19:44.026Z,2.50
2023-03-26T10:22:31.512Z,2.27
2023-03-26T10:25:30.974Z,2.57
2023-03-26T10:28:26.509Z,2.73
2023-03-26T10:31:28.468Z,3.03
2023-03-26T10:34:07.093Z,2.00
2023-03-26T10:36:39.032Z,2.30
2023-03-26T10:39:38.174Z,1.83
2023-03-26T10:42:35.097Z,1.90
2023-03-26T10:45:34.669Z,1.57
2023-03-26T10:48:42.183Z,2.10
2023-03-26T10:51:48.631Z,3.43
2023-03-26T10:54:28.214Z,1.90
2023-03-26T10:56:57.794Z,1.70
2023-03-26T10:59:28.643Z,2.50
2023-03-26T11:02:29.491Z,1.63
2023-03-26T11:05:24.933Z,2.37
2023-03-26T11:08:03.033Z,1.77
2023-03-26T11:10:45.352Z,1.90
2023-03-26T11:13:24.360Z,1.30
2023-03-26T11:15:57.792Z,2.00
2023-03-26T11:18:39.425Z,1.87
2023-03-26T11:21:18.946Z,1.37
2023-03-26T11:24:12.689Z,1.73
2023-03-26T11:26:52.991Z,1.37
2023-03-26T11:29:38.935Z,1.60
2023-03-26T11:32:13.156Z,6.07
2023-03-26T11:34:54.254Z,7.17
2023-03-26T11:37:33.392Z,5.33
2023-03-26T11:40:11.586Z,5.13
2023-03-26T11:42:41.836Z,3.90
2023-03-26T11:45:19.682Z,2.27
2023-03-26T11:47:53.144Z,2.90
2023-03-26T11:50:29.166Z,2.10
2023-03-26T11:53:01.306Z,2.03
2023-03-26T11:55:29.997Z,2.20
2023-03-26T11:58:01.459Z,2.43
2023-03-26T12:00:30.742Z,1.77
2023-03-26T12:03:01.617Z,2.00
2023-03-26T12:05:51.061Z,1.60
2023-03-26T12:08:23.153Z,2.13
2023-03-26T12:11:04.659Z,1.80
2023-03-26T12:13:39.783Z,2.50
2023-03-26T12:16:14.095Z,1.70
2023-03-26T12:18:44.250Z,2.00
2023-03-26T12:21:16.839Z,3.40
2023-03-26T12:23:56.455Z,4.40
2023-03-26T12:26:39.602Z,2.10
2023-03-26T12:29:13.868Z,1.37
2023-03-26T12:31:57.050Z,1.93
2023-03-26T12:34:34.887Z,2.33
2023-03-26T12:37:07.535Z,1.50
2023-03-26T12:40:07.450Z,2.20
2023-03-26T12:44:46.327Z,1.80
2023-03-26T12:45:24.018Z,2.00
2023-03-26T12:48:02.411Z,3.03
2023-03-26T12:50:48.172Z,1.33
2023-03-26T12:53:46.637Z,1.40
2023-03-26T12:56:23.714Z,1.30
2023-03-26T12:59:23.749Z,1.53
2023-03-26T13:02:04.178Z,1.17
2023-03-26T13:04:58.420Z,1.40
2023-03-26T13:07:52.964Z,1.23
2023-03-26T13:10:44.488Z,1.60
2023-03-26T13:13:34.085Z,2.90
2023-03-26T13:16:09.878Z,1.47
2023-03-26T13:18:49.123Z,1.60
2023-03-26T13:21:29.975Z,1.40
2023-03-26T13:24:09.272Z,1.90
2023-03-26T13:26:57.333Z,1.43
2023-03-26T13:29:38.120Z,1.30
2023-03-26T13:32:15.980Z,1.17
2023-03-26T13:35:02.084Z,1.90
2023-03-26T13:37:37.603Z,1.70
2023-03-26T13:40:26.033Z,1.13
2023-03-26T13:43:21.585Z,1.67
2023-03-26T13:45:59.574Z,1.70
2023-03-26T13:48:32.131Z,1.30
2023-03-26T13:51:08.062Z,1.80
2023-03-26T13:53:44.140Z,1.90
2023-03-26T13:56:16.556Z,2.10
2023-03-26T13:58:51.176Z,2.10
2023-03-26T14:01:23.832Z,2.20
2023-03-26T14:03:59.293Z,2.83
2023-03-26T14:06:43.535Z,1.50
2023-03-26T14:09:19.949Z,0.83
2023-03-26T14:12:21.113Z,1.20
2023-03-26T14:14:56.510Z,8.30
2023-03-26T14:17:29.853Z,1.37
2023-03-26T14:20:44.707Z,1.87
2023-03-26T14:23:38.867Z,1.53
2023-03-26T14:26:25.161Z,0.80
2023-03-26T14:29:39.024Z,1.10
2023-03-26T14:32:30.758Z,1.23
2023-03-26T14:35:35.180Z,1.43
2023-03-26T14:38:59.212Z,0.83
2023-03-26T14:41:31.142Z,1.50
2023-03-26T14:44:47.777Z,1.90
2023-03-26T14:47:20.958Z,1.00
2023-03-26T14:50:31.496Z,1.83
2023-03-26T14:53:05.487Z,1.30
2023-03-26T14:56:10.777Z,1.63
2023-03-26T14:59:24.409Z,2.50
2023-03-26T15:03:04.128Z,1.40
2023-03-26T15:06:21.224Z,1.13
2023-03-26T15:09:40.421Z,1.10
2023-03-26T15:12:23.584Z,2.50
2023-03-26T15:15:53.870Z,1.67
2023-03-26T15:19:22.830Z,1.67
2023-03-26T15:23:02.920Z,2.30
2023-03-26T15:26:03.790Z,1.53
2023-03-26T15:29:05.960Z,1.33
2023-03-26T15:32:15.044Z,1.67
2023-03-26T15:35:33.122Z,1.17
2023-03-26T15:38:42.360Z,2.80
2023-03-26T15:41:18.508Z,1.17
2023-03-26T15:44:32.978Z,2.40
2023-03-26T15:47:36.395Z,1.53
2023-03-26T15:50:23.163Z,1.40
2023-03-26T15:53:03.155Z,1.97
2023-03-26T15:55:37.514Z,0.90
2023-03-26T15:58:17.046Z,1.17
2023-03-26T16:00:57.195Z,0.80
2023-03-26T16:03:36.902Z,0.50
2023-03-26T16:06:41.365Z,0.40
2023-03-26T16:09:35.322Z,0.73
2023-03-26T16:12:27.770Z,0.60
2023-03-26T16:15:33.395Z,1.30
2023-03-26T16:18:36.960Z,0.77
2023-03-26T16:21:39.272Z,0.50
2023-03-26T16:24:25.011Z,0.70
2023-03-26T16:27:32.201Z,1.33
2023-03-26T16:30:27.927Z,1.77
2023-03-26T16:33:10.334Z,1.27
2023-03-26T16:36:25.946Z,2.00
2023-03-26T16:39:12.958Z,1.50
2023-03-26T16:42:06.166Z,1.50
2023-03-26T16:44:47.429Z,1.37
2023-03-26T16:47:24.399Z,2.67
2023-03-26T16:50:12.156Z,2.10
2023-03-26T16:52:51.982Z,1.53
2023-03-26T16:55:29.871Z,1.80
2023-03-26T16:58:10.297Z,1.80
2023-03-26T17:00:49.894Z,2.60
2023-03-26T17:03:37.690Z,3.57
2023-03-26T17:06:26.532Z,2.27
2023-03-26T17:09:04.323Z,1.17
2023-03-26T17:11:44.497Z,2.27
2023-03-26T17:14:29.711Z,3.10
2023-03-26T17:17:45.370Z,3.13
2023-03-26T17:20:27.266Z,1.73
2023-03-26T17:23:11.637Z,2.23
2023-03-26T17:25:56.783Z,3.10
2023-03-26T17:28:52.552Z,2.60
2023-03-26T17:31:35.327Z,1.90
2023-03-26T17:34:45.583Z,2.60
2023-03-26T17:37:36.529Z,2.80
2023-03-26T17:40:54.854Z,2.10
2023-03-26T17:43:51.651Z,1.47
2023-03-26T17:46:35.142Z,2.43
2023-03-26T17:49:13.491Z,2.00
2023-03-26T17:51:50.402Z,4.17
2023-03-26T17:54:24.426Z,2.27
2023-03-26T17:56:56.456Z,1.93
2023-03-26T17:59:28.353Z,2.83
2023-03-26T18:02:03.459Z,2.80
2023-03-26T18:04:38.101Z,3.77
2023-03-26T18:08:12.682Z,2.80
2023-03-26T18:11:33.673Z,1.80
2023-03-26T18:15:02.193Z,1.67
2023-03-26T18:17:40.388Z,1.10
2023-03-26T18:20:21.647Z,1.73
2023-03-26T18:22:50.924Z,1.10
2023-03-26T18:25:25.953Z,1.60
2023-03-26T18:27:55.002Z,1.50
2023-03-26T18:30:26.251Z,1.23
2023-03-26T18:33:01.833Z,1.60
2023-03-26T18:35:42.197Z,1.60
2023-03-26T18:38:18.622Z,1.40
2023-03-26T18:41:05.917Z,1.20
2023-03-26T18:43:43.984Z,0.87
2023-03-26T18:46:16.866Z,1.30
2023-03-26T18:48:45.824Z,1.00
2023-03-26T18:51:15.972Z,1.10
2023-03-26T18:53:51.567Z,0.97
2023-03-26T18:56:28.956Z,1.13
2023-03-26T18:58:59.448Z,1.30
2023-03-26T19:01:32.358Z,1.17
2023-03-26T19:04:04.040Z,1.20
2023-03-26T19:06:35.906Z,0.97
2023-03-26T19:09:16.330Z,1.33
2023-03-26T19:11:51.056Z,0.90
2023-03-26T19:14:21.674Z,1.20
2023-03-26T19:16:56.772Z,1.53
2023-03-26T19:19:31.483Z,1.37
2023-03-26T19:22:00.368Z,1.30
2023-03-26T19:24:28.908Z,1.00
2023-03-26T19:26:57.632Z,0.83
2023-03-26T19:29:30.264Z,1.07
2023-03-26T19:32:06.763Z,1.10
2023-03-26T19:34:39.692Z,1.67
2023-03-26T19:37:21.430Z,1.70
2023-03-26T19:39:52.554Z,1.30
2023-03-26T19:42:26.563Z,1.10
2023-03-26T19:44:55.928Z,0.90
2023-03-26T19:47:43.707Z,1.17
2023-03-26T19:50:27.969Z,1.17
2023-03-26T19:53:18.851Z,1.00
2023-03-26T19:55:59.082Z,0.90
2023-03-26T19:58:28.242Z,0.87
2023-03-26T20:00:57.121Z,1.20
2023-03-26T20:03:30.774Z,1.17
2023-03-26T20:05:59.176Z,1.10
2023-03-26T20:08:27.975Z,1.07
2023-03-26T20:10:58.342Z,1.20
2023-03-26T20:13:27.292Z,1.70
2023-03-26T20:16:04.993Z,1.40
2023-03-26T20:18:36.798Z,1.60
2023-03-26T20:21:12.027Z,1.40
2023-03-26T20:23:40.885Z,1.70
2023-03-26T20:26:15.453Z,1.80
2023-03-26T20:28:48.544Z,1.70
2023-03-26T20:31:25.025Z,1.93
2023-03-26T20:33:56.460Z,1.60
2023-03-26T20:36:34.309Z,1.27
2023-03-26T20:39:06.484Z,1.43
2023-03-26T20:41:35.876Z,1.30
2023-03-26T20:44:05.912Z,2.10
2023-03-26T20:46:34.430Z,1.53
2023-03-26T20:49:05.528Z,1.17
2023-03-26T20:51:34.107Z,0.90
2023-03-26T20:54:02.507Z,0.80
2023-03-26T20:56:30.972Z,0.90
2023-03-26T21:01:30.641Z,0.90
2023-03-26T21:03:58.958Z,0.80
2023-03-26T21:06:28.945Z,1.13
2023-03-26T21:08:58.266Z,1.07
2023-03-26T21:11:40.942Z,0.80
2023-03-26T21:14:17.223Z,0.97
2023-03-26T21:16:46.213Z,0.70
2023-03-26T21:19:15.846Z,0.70
2023-03-26T21:21:59.074Z,0.80
2023-03-26T21:24:42.935Z,0.80
2023-03-26T21:27:22.790Z,0.80
2023-03-26T21:29:52.608Z,0.80
2023-03-26T21:32:22.535Z,1.23
2023-03-26T21:34:59.024Z,1.30
2023-03-26T21:37:30.391Z,1.20
2023-03-26T21:39:59.977Z,1.30
2023-03-26T21:42:29.517Z,1.20
2023-03-26T21:44:58.641Z,1.17
2023-03-26T21:47:27.852Z,1.50
2023-03-26T21:49:57.516Z,1.60
2023-03-26T21:52:30.713Z,1.60
2023-03-26T21:55:00.921Z,1.73
2023-03-26T21:57:46.167Z,2.03
2023-03-26T22:00:18.577Z,1.60
2023-03-26T22:03:05.759Z,1.63
2023-03-26T22:05:42.333Z,1.70
2023-03-26T22:08:23.123Z,2.20
2023-03-26T22:10:51.437Z,2.07
2023-03-26T22:13:19.857Z,2.00
2023-03-26T22:15:48.298Z,2.20
2023-03-26T22:18:19.861Z,2.43
2023-03-26T22:20:48.663Z,2.20
2023-03-26T22:23:18.415Z,1.80
2023-03-26T22:25:47.361Z,2.87
2023-03-26T22:28:16.052Z,2.93
2023-03-26T22:30:44.347Z,2.70
2023-03-26T22:33:14.405Z,2.70
2023-03-26T22:35:43.297Z,3.60
2023-03-26T22:38:11.743Z,3.17
2023-03-26T22:40:41.456Z,4.00
2023-03-26T22:43:10.131Z,3.80
2023-03-26T22:45:38.705Z,3.90
2023-03-26T22:48:07.191Z,4.10
2023-03-26T22:50:35.603Z,3.97
2023-03-26T22:53:04.163Z,3.77
2023-03-26T22:55:32.502Z,4.13
2023-03-26T22:58:02.170Z,3.90
2023-03-26T23:00:30.739Z,3.87
2023-03-26T23:03:00.565Z,4.20
2023-03-26T23:05:29.615Z,3.73
2023-03-26T23:07:58.305Z,4.03
2023-03-26T23:10:26.704Z,4.00
2023-03-26T23:12:55.041Z,4.10
2023-03-26T23:15:25.934Z,4.47
2023-03-26T23:17:55.145Z,3.73
2023-03-26T23:20:23.820Z,3.50
2023-03-26T23:22:52.665Z,3.83
2023-03-26T23:25:21.325Z,3.80
2023-03-26T23:27:50.668Z,3.30
2023-03-26T23:30:19.470Z,3.40
2023-03-26T23:32:49.346Z,2.30
2023-03-26T23:35:17.962Z,2.73
2023-03-26T23:37:46.408Z,2.40
2023-03-26T23:40:15.804Z,2.30
2023-03-26T23:42:44.128Z,2.33
2023-03-26T23:45:13.363Z,2.97
2023-03-26T23:47:42.569Z,2.50
2023-03-26T23:50:13.142Z,2.80
2023-03-26T23:52:41.584Z,2.10
2023-03-26T23:55:10.920Z,2.80
2023-03-26T23:57:39.221Z,2.90
